Time;durP1;ratioP1;P1;durP2;ratioP2;P2;SDS_P1;SDS_P2;PMS_P1;PMS_P2;Temp;Humidity;BMP_temperature;BMP_pressure;BME280_temperature;BME280_humidity;BME280_pressure;Samples;Min_cycle;Max_cycle;Signal;HPM_P1;HPM_P2
2021/01/29 00:01:32;;;;;;;6.80;5.13;;;;;;;;;;5072940;28;20232;-57
2021/01/29 00:03:59;;;;;;;8.65;5.30;;;;;;;;;;5073100;28;20327;-56
2021/01/29 00:06:26;;;;;;;5.50;4.75;;;;;;;;;;5073085;28;20197;-57
2021/01/29 00:08:53;;;;;;;6.50;5.47;;;;;;;;;;5073095;28;20221;-56
2021/01/29 00:11:20;;;;;;;5.80;4.88;;;;;;;;;;5073357;28;20229;-56
2021/01/29 00:13:47;;;;;;;7.18;5.15;;;;;;;;;;5072795;28;20201;-57
2021/01/29 00:16:14;;;;;;;7.13;5.30;;;;;;;;;;5073009;28;20201;-55
2021/01/29 00:18:40;;;;;;;6.95;6.25;;;;;;;;;;5073065;28;20201;-56
2021/01/29 00:21:07;;;;;;;7.03;5.60;;;;;;;;;;5072622;28;20307;-57
2021/01/29 00:23:34;;;;;;;8.20;5.72;;;;;;;;;;5075048;28;20205;-57
2021/01/29 00:26:01;;;;;;;7.05;5.30;;;;;;;;;;5077074;28;20201;-57
2021/01/29 00:28:28;;;;;;;7.25;6.53;;;;;;;;;;5076797;28;20227;-57
2021/01/29 00:30:55;;;;;;;6.65;5.95;;;;;;;;;;5077011;28;20224;-57
2021/01/29 00:33:23;;;;;;;7.40;5.35;;;;;;;;;;5076601;28;20304;-56
2021/01/29 00:35:50;;;;;;;5.60;4.95;;;;;;;;;;5076971;28;20624;-57
2021/01/29 00:38:17;;;;;;;6.95;5.28;;;;;;;;;;5076569;28;20197;-56
2021/01/29 00:40:43;;;;;;;6.00;5.32;;;;;;;;;;5076322;28;20228;-56
2021/01/29 00:43:10;;;;;;;6.43;5.72;;;;;;;;;;5076745;28;20197;-56
2021/01/29 00:45:38;;;;;;;6.15;5.55;;;;;;;;;;5076786;28;20201;-56
2021/01/29 00:48:06;;;;;;;10.65;6.32;;;;;;;;;;5077198;28;20213;-56
2021/01/29 00:50:32;;;;;;;9.35;5.70;;;;;;;;;;5077300;28;20280;-57
2021/01/29 00:53:00;;;;;;;6.68;5.53;;;;;;;;;;5076652;28;20673;-56
2021/01/29 00:55:27;;;;;;;8.57;6.30;;;;;;;;;;5076600;28;20312;-56
2021/01/29 00:57:54;;;;;;;8.00;6.55;;;;;;;;;;5076788;28;20664;-56
2021/01/29 01:00:21;;;;;;;9.85;6.47;;;;;;;;;;5076609;28;20205;-56
2021/01/29 01:02:49;;;;;;;10.32;6.28;;;;;;;;;;5076514;28;20201;-57
2021/01/29 01:05:16;;;;;;;6.78;5.97;;;;;;;;;;5076256;28;20201;-57
2021/01/29 01:07:43;;;;;;;6.95;6.25;;;;;;;;;;5075815;28;20213;-56
2021/01/29 01:10:10;;;;;;;7.63;6.25;;;;;;;;;;5076886;28;20197;-57
2021/01/29 01:12:37;;;;;;;7.50;6.50;;;;;;;;;;5076039;28;20247;-57
2021/01/29 01:15:07;;;;;;;10.50;7.20;;;;;;;;;;5075726;28;20208;-57
2021/01/29 01:17:33;;;;;;;8.50;6.28;;;;;;;;;;5076035;28;20204;-56
2021/01/29 01:20:01;;;;;;;7.45;6.18;;;;;;;;;;5075731;28;20201;-57
2021/01/29 01:22:28;;;;;;;8.18;6.97;;;;;;;;;;5077053;28;20237;-56
2021/01/29 01:24:54;;;;;;;7.50;6.60;;;;;;;;;;5077556;28;20205;-57
2021/01/29 01:27:21;;;;;;;6.60;5.78;;;;;;;;;;5077226;28;20671;-57
2021/01/29 01:29:48;;;;;;;8.68;5.88;;;;;;;;;;5078103;28;20661;-57
2021/01/29 01:32:15;;;;;;;10.70;6.43;;;;;;;;;;5077184;28;20251;-56
2021/01/29 01:34:42;;;;;;;9.40;6.00;;;;;;;;;;5075141;28;20208;-57
2021/01/29 01:37:09;;;;;;;6.55;5.80;;;;;;;;;;5076091;28;20673;-56
2021/01/29 01:39:36;;;;;;;9.02;6.50;;;;;;;;;;5076340;28;20201;-57
2021/01/29 01:42:03;;;;;;;7.93;6.05;;;;;;;;;;5075693;28;20240;-57
2021/01/29 01:44:33;;;;;;;7.93;7.10;;;;;;;;;;5075613;28;20208;-57
2021/01/29 01:47:01;;;;;;;9.52;7.70;;;;;;;;;;5075852;28;20201;-57
2021/01/29 01:49:28;;;;;;;8.32;6.65;;;;;;;;;;5075353;28;20232;-57
2021/01/29 01:51:57;;;;;;;8.43;7.03;;;;;;;;;;5075755;28;20221;-57
2021/01/29 01:54:30;;;;;;;9.40;6.28;;;;;;;;;;5076269;28;20262;-57
2021/01/29 01:56:59;;;;;;;8.52;7.07;;;;;;;;;;5075814;28;20185;-57
2021/01/29 01:59:35;;;;;;;8.35;6.90;;;;;;;;;;5075677;28;20202;-56
2021/01/29 02:02:02;;;;;;;9.10;7.90;;;;;;;;;;5075828;28;20232;-56
2021/01/29 02:04:30;;;;;;;8.60;7.35;;;;;;;;;;5075798;28;20215;-56
2021/01/29 02:06:59;;;;;;;10.98;6.78;;;;;;;;;;5075868;28;20595;-56
2021/01/29 02:09:27;;;;;;;10.70;7.63;;;;;;;;;;5075155;28;20220;-56
2021/01/29 02:11:54;;;;;;;10.77;7.30;;;;;;;;;;5075011;28;20221;-56
2021/01/29 02:14:21;;;;;;;10.20;7.55;;;;;;;;;;5074693;28;20688;-57
2021/01/29 02:16:51;;;;;;;12.07;7.22;;;;;;;;;;5074897;28;20575;-56
2021/01/29 02:19:27;;;;;;;8.30;7.50;;;;;;;;;;5074956;28;20197;-56
2021/01/29 02:22:07;;;;;;;11.35;7.85;;;;;;;;;;5074381;28;20239;-57
2021/01/29 02:24:52;;;;;;;8.52;7.72;;;;;;;;;;5074757;28;20182;-57
2021/01/29 02:27:27;;;;;;;12.25;7.70;;;;;;;;;;5074697;28;20238;-56
2021/01/29 02:30:08;;;;;;;8.27;7.50;;;;;;;;;;5074804;28;20193;-56
2021/01/29 02:33:02;;;;;;;11.60;8.90;;;;;;;;;;5074666;28;20232;-57
2021/01/29 02:35:48;;;;;;;9.73;7.75;;;;;;;;;;5074569;28;20201;-57
2021/01/29 02:38:31;;;;;;;9.63;8.65;;;;;;;;;;5074638;28;20187;-58
2021/01/29 02:41:00;;;;;;;9.45;8.50;;;;;;;;;;5074560;28;20228;-57
2021/01/29 02:43:36;;;;;;;9.65;8.38;;;;;;;;;;5074407;28;20227;-58
2021/01/29 02:46:06;;;;;;;10.60;7.50;;;;;;;;;;5073993;28;20185;-57
2021/01/29 02:48:38;;;;;;;9.43;8.38;;;;;;;;;;5074224;28;20208;-56
2021/01/29 02:51:06;;;;;;;10.40;8.52;;;;;;;;;;5073979;28;20661;-57
2021/01/29 02:53:38;;;;;;;13.75;8.13;;;;;;;;;;5073884;28;20205;-56
2021/01/29 02:56:09;;;;;;;11.98;8.48;;;;;;;;;;5074231;28;20193;-56
2021/01/29 02:58:41;;;;;;;11.23;7.97;;;;;;;;;;5074144;28;20193;-57
2021/01/29 03:01:09;;;;;;;10.98;7.95;;;;;;;;;;5073666;28;20763;-57
2021/01/29 03:03:38;;;;;;;11.32;8.38;;;;;;;;;;5074263;28;20205;-57
2021/01/29 03:06:09;;;;;;;11.02;7.80;;;;;;;;;;5073812;28;20806;-57
2021/01/29 03:08:38;;;;;;;13.25;8.38;;;;;;;;;;5073912;28;20251;-57
2021/01/29 03:11:07;;;;;;;9.25;7.40;;;;;;;;;;5073900;28;20224;-57
2021/01/29 03:13:36;;;;;;;12.65;8.85;;;;;;;;;;5073641;28;20672;-57
2021/01/29 03:16:06;;;;;;;9.15;8.00;;;;;;;;;;5073428;28;20205;-57
2021/01/29 03:18:37;;;;;;;11.60;7.80;;;;;;;;;;5073789;28;20181;-57
2021/01/29 03:21:06;;;;;;;11.07;7.80;;;;;;;;;;5073337;28;20240;-58
2021/01/29 03:23:37;;;;;;;11.63;7.68;;;;;;;;;;5073681;28;20205;-57
2021/01/29 03:26:07;;;;;;;9.98;7.63;;;;;;;;;;5073710;28;20189;-56
2021/01/29 03:28:35;;;;;;;10.73;8.18;;;;;;;;;;5073396;28;20221;-56
2021/01/29 03:31:03;;;;;;;11.85;9.13;;;;;;;;;;5073609;28;20251;-57
2021/01/29 03:33:32;;;;;;;9.82;7.78;;;;;;;;;;5073677;28;20205;-54
2021/01/29 03:36:00;;;;;;;11.13;8.20;;;;;;;;;;5073666;28;20197;-57
2021/01/29 03:38:30;;;;;;;10.30;7.47;;;;;;;;;;5073004;28;20284;-56
2021/01/29 03:41:02;;;;;;;11.38;8.75;;;;;;;;;;5073469;28;20228;-57
2021/01/29 03:43:31;;;;;;;9.90;8.88;;;;;;;;;;5073461;28;20200;-56
2021/01/29 03:46:03;;;;;;;8.77;7.72;;;;;;;;;;5073339;28;20551;-57
2021/01/29 03:48:34;;;;;;;9.85;8.43;;;;;;;;;;5073251;28;20278;-57
2021/01/29 03:51:05;;;;;;;11.30;8.65;;;;;;;;;;5073249;28;20228;-57
2021/01/29 03:53:38;;;;;;;11.13;7.93;;;;;;;;;;5073278;28;20193;-57
2021/01/29 03:56:08;;;;;;;9.70;8.80;;;;;;;;;;5073256;28;20185;-57
2021/01/29 03:58:40;;;;;;;11.02;8.98;;;;;;;;;;5072626;28;20652;-56
2021/01/29 04:01:12;;;;;;;11.50;8.60;;;;;;;;;;5072845;28;20708;-57
2021/01/29 04:03:41;;;;;;;10.25;7.70;;;;;;;;;;5073167;28;20200;-57
2021/01/29 04:07:44;;;;;;;10.57;8.10;;;;;;;;;;5111723;27;20547;-58
2021/01/29 04:10:12;;;;;;;10.55;9.45;;;;;;;;;;5111337;28;20184;-58
2021/01/29 04:12:41;;;;;;;10.90;8.90;;;;;;;;;;5110909;28;20230;-58
2021/01/29 04:15:10;;;;;;;10.52;8.98;;;;;;;;;;5111253;28;20207;-58
2021/01/29 04:17:43;;;;;;;14.02;9.38;;;;;;;;;;5114831;28;20210;-57
2021/01/29 04:20:13;;;;;;;10.65;9.52;;;;;;;;;;5118643;28;20194;-58
2021/01/29 04:22:42;;;;;;;12.75;9.57;;;;;;;;;;5117366;28;20223;-59
2021/01/29 04:25:15;;;;;;;12.10;10.45;;;;;;;;;;5117532;28;20200;-57
2021/01/29 04:27:45;;;;;;;13.95;10.45;;;;;;;;;;5112776;28;20180;-57
2021/01/29 04:30:17;;;;;;;11.50;10.00;;;;;;;;;;5112439;28;20214;-58
2021/01/29 04:32:46;;;;;;;13.55;10.32;;;;;;;;;;5112628;28;20240;-58
2021/01/29 04:35:15;;;;;;;12.50;10.68;;;;;;;;;;5112016;28;20199;-57
2021/01/29 04:37:46;;;;;;;13.63;11.40;;;;;;;;;;5112512;28;20207;-57
2021/01/29 04:40:19;;;;;;;15.10;11.45;;;;;;;;;;5112511;28;20207;-58
2021/01/29 04:42:54;;;;;;;13.93;10.82;;;;;;;;;;5111796;28;20188;-58
2021/01/29 04:45:35;;;;;;;16.17;12.00;;;;;;;;;;5113571;28;20184;-57
2021/01/29 04:48:06;;;;;;;18.45;11.43;;;;;;;;;;5113409;28;20196;-57
2021/01/29 04:50:42;;;;;;;12.43;11.10;;;;;;;;;;5112794;28;20187;-58
2021/01/29 04:53:24;;;;;;;12.55;11.35;;;;;;;;;;5113595;28;20191;-58
2021/01/29 04:56:06;;;;;;;12.30;10.45;;;;;;;;;;5113489;28;20191;-57
2021/01/29 04:58:34;;;;;;;15.77;11.93;;;;;;;;;;5079642;28;20212;-58
2021/01/29 05:01:23;;;;;;;15.32;11.32;;;;;;;;;;5113719;28;20224;-58
2021/01/29 05:04:00;;;;;;;15.70;12.02;;;;;;;;;;5114827;28;20192;-57
2021/01/29 05:06:39;;;;;;;16.35;11.23;;;;;;;;;;5112212;28;20223;-57
2021/01/29 05:09:23;;;;;;;15.57;11.77;;;;;;;;;;5110084;28;20183;-58
2021/01/29 05:11:56;;;;;;;13.63;11.85;;;;;;;;;;5110241;28;20224;-56
2021/01/29 05:14:29;;;;;;;15.40;11.32;;;;;;;;;;5110093;28;20196;-58
2021/01/29 05:17:13;;;;;;;16.30;11.55;;;;;;;;;;5108671;28;20192;-59
2021/01/29 05:19:58;;;;;;;15.82;10.68;;;;;;;;;;5096318;28;20196;-57
2021/01/29 05:22:37;;;;;;;16.52;11.63;;;;;;;;;;5096569;28;20224;-58
2021/01/29 05:25:22;;;;;;;16.25;11.15;;;;;;;;;;5096068;28;20267;-59
2021/01/29 05:27:57;;;;;;;14.43;11.45;;;;;;;;;;5096091;28;20191;-58
2021/01/29 05:30:42;;;;;;;14.38;10.68;;;;;;;;;;5095712;28;20644;-57
2021/01/29 05:33:30;;;;;;;19.63;12.10;;;;;;;;;;5096017;28;20196;-57
2021/01/29 05:36:05;;;;;;;19.60;12.48;;;;;;;;;;5097557;28;20188;-58
2021/01/29 05:38:42;;;;;;;18.02;12.57;;;;;;;;;;5097009;28;20192;-58
2021/01/29 05:41:26;;;;;;;18.73;11.95;;;;;;;;;;5096734;28;20273;-57
2021/01/29 05:44:04;;;;;;;15.07;12.10;;;;;;;;;;5096054;28;20189;-58
2021/01/29 05:46:36;;;;;;;15.75;12.00;;;;;;;;;;5095893;28;20208;-58
2021/01/29 05:49:23;;;;;;;17.10;12.93;;;;;;;;;;5095490;28;20186;-58
2021/01/29 05:52:11;;;;;;;17.92;12.02;;;;;;;;;;5090654;28;20248;-58
2021/01/29 05:54:49;;;;;;;16.08;12.70;;;;;;;;;;5095478;28;20250;-58
2021/01/29 05:57:33;;;;;;;18.73;13.45;;;;;;;;;;5095511;28;20200;-58
2021/01/29 06:00:10;;;;;;;17.05;12.75;;;;;;;;;;5064374;28;20204;-57
2021/01/29 06:02:48;;;;;;;17.25;12.75;;;;;;;;;;5095520;28;20730;-60
2021/01/29 06:05:31;;;;;;;16.63;13.50;;;;;;;;;;5095983;28;20636;-59
2021/01/29 06:08:07;;;;;;;22.50;13.05;;;;;;;;;;5097213;28;20191;-59
2021/01/29 06:10:44;;;;;;;21.30;14.43;;;;;;;;;;5095329;28;20245;-58
2021/01/29 06:13:28;;;;;;;19.88;13.88;;;;;;;;;;5095567;28;20191;-58
2021/01/29 06:16:13;;;;;;;26.02;15.18;;;;;;;;;;5095552;28;20189;-59
2021/01/29 06:18:51;;;;;;;19.23;13.57;;;;;;;;;;5095763;28;20251;-58
2021/01/29 06:21:26;;;;;;;18.98;13.30;;;;;;;;;;5095392;28;20278;-58
2021/01/29 06:24:06;;;;;;;20.02;15.65;;;;;;;;;;5095391;28;20195;-59
2021/01/29 06:26:44;;;;;;;16.35;13.30;;;;;;;;;;5094894;28;20205;-58
2021/01/29 06:29:23;;;;;;;17.63;13.02;;;;;;;;;;5094221;28;20191;-58
2021/01/29 06:32:14;;;;;;;15.13;12.82;;;;;;;;;;5094656;28;20224;-57
2021/01/29 06:34:48;;;;;;;17.23;12.63;;;;;;;;;;5079840;28;20325;-57
2021/01/29 06:37:20;;;;;;;17.67;13.02;;;;;;;;;;5094751;28;20184;-57
2021/01/29 06:39:56;;;;;;;15.93;12.57;;;;;;;;;;5094357;28;20192;-58
2021/01/29 06:42:33;;;;;;;20.38;13.35;;;;;;;;;;5094905;28;20216;-58
2021/01/29 06:45:18;;;;;;;15.98;10.50;;;;;;;;;;5095873;28;20192;-58
2021/01/29 06:47:58;;;;;;;17.05;10.40;;;;;;;;;;5094660;28;20227;-60
2021/01/29 06:50:51;;;;;;;16.38;12.90;;;;;;;;;;5097709;28;20180;-59
2021/01/29 06:53:25;;;;;;;19.83;12.50;;;;;;;;;;5096367;28;20185;-57
2021/01/29 06:56:09;;;;;;;19.52;12.63;;;;;;;;;;5099669;28;20201;-56
2021/01/29 06:58:54;;;;;;;16.58;12.52;;;;;;;;;;5095166;28;20239;-58
2021/01/29 07:01:32;;;;;;;14.73;12.52;;;;;;;;;;5094283;28;20220;-57
2021/01/29 07:04:17;;;;;;;16.20;13.43;;;;;;;;;;5094363;28;20641;-57
2021/01/29 07:07:01;;;;;;;16.23;13.00;;;;;;;;;;5095014;28;20242;-57
2021/01/29 07:09:47;;;;;;;14.13;11.40;;;;;;;;;;5094910;28;20194;-59
2021/01/29 07:12:23;;;;;;;18.83;13.63;;;;;;;;;;5094080;28;20231;-59
2021/01/29 07:14:58;;;;;;;20.25;13.35;;;;;;;;;;5093831;28;20253;-58
2021/01/29 07:17:35;;;;;;;17.33;13.40;;;;;;;;;;5093889;28;20589;-58
2021/01/29 07:20:08;;;;;;;17.77;13.20;;;;;;;;;;5094712;28;20557;-57
2021/01/29 07:22:53;;;;;;;17.38;13.30;;;;;;;;;;5094031;28;20227;-57
2021/01/29 07:25:24;;;;;;;17.70;13.77;;;;;;;;;;5094817;28;20210;-58
2021/01/29 07:27:59;;;;;;;19.00;13.43;;;;;;;;;;5094006;28;20305;-57
2021/01/29 07:30:37;;;;;;;18.50;13.63;;;;;;;;;;5093423;28;20184;-57
2021/01/29 07:33:12;;;;;;;19.08;13.68;;;;;;;;;;5094066;28;20184;-58
2021/01/29 07:35:46;;;;;;;19.38;14.23;;;;;;;;;;5098122;28;20188;-58
2021/01/29 07:38:32;;;;;;;23.35;16.52;;;;;;;;;;5094859;28;20648;-58
2021/01/29 07:41:20;;;;;;;23.60;15.63;;;;;;;;;;5093670;28;20220;-57
2021/01/29 07:43:52;;;;;;;23.40;15.75;;;;;;;;;;5088878;28;20614;-58
2021/01/29 07:46:27;;;;;;;21.35;16.95;;;;;;;;;;5093960;28;20300;-58
2021/01/29 07:49:00;;;;;;;21.67;16.30;;;;;;;;;;5093890;28;20191;-58
2021/01/29 07:51:31;;;;;;;28.42;16.77;;;;;;;;;;5094258;28;20302;-57
2021/01/29 07:54:10;;;;;;;25.77;17.15;;;;;;;;;;5094104;28;20181;-58
2021/01/29 07:56:45;;;;;;;23.70;17.23;;;;;;;;;;5093801;28;20560;-57
2021/01/29 07:59:19;;;;;;;24.55;17.08;;;;;;;;;;5096535;28;20188;-58
2021/01/29 08:01:51;;;;;;;23.13;17.02;;;;;;;;;;5093632;28;20726;-57
2021/01/29 08:04:24;;;;;;;25.33;18.58;;;;;;;;;;5094406;28;20555;-57
2021/01/29 08:06:55;;;;;;;23.50;17.45;;;;;;;;;;5093444;28;20285;-57
2021/01/29 08:09:24;;;;;;;22.10;16.83;;;;;;;;;;5093900;28;20194;-57
2021/01/29 08:11:56;;;;;;;22.42;17.85;;;;;;;;;;5093238;28;20597;-57
2021/01/29 08:14:33;;;;;;;22.85;17.25;;;;;;;;;;5095808;28;20194;-58
2021/01/29 08:17:08;;;;;;;22.70;17.90;;;;;;;;;;5097733;28;20253;-57
2021/01/29 08:19:43;;;;;;;25.42;18.30;;;;;;;;;;5093710;28;20557;-56
2021/01/29 08:22:17;;;;;;;24.77;18.63;;;;;;;;;;5096684;28;20224;-57
2021/01/29 08:25:14;;;;;;;27.30;17.75;;;;;;;;;;5094200;28;20183;-56
2021/01/29 08:27:59;;;;;;;27.45;20.15;;;;;;;;;;5033161;28;20665;-57
2021/01/29 08:30:44;;;;;;;24.00;18.20;;;;;;;;;;5087750;28;20205;-56
2021/01/29 08:33:23;;;;;;;27.80;20.77;;;;;;;;;;5094206;28;20287;-59
2021/01/29 08:36:03;;;;;;;26.92;19.15;;;;;;;;;;5094027;28;20188;-57
2021/01/29 08:38:35;;;;;;;25.50;20.42;;;;;;;;;;5093857;28;20556;-57
2021/01/29 08:41:07;;;;;;;27.45;19.58;;;;;;;;;;5095072;28;20227;-56
2021/01/29 08:43:59;;;;;;;26.92;19.35;;;;;;;;;;5099741;28;20246;-57
2021/01/29 08:46:37;;;;;;;25.25;20.10;;;;;;;;;;5102274;28;20200;-55
2021/01/29 08:49:16;;;;;;;26.77;19.30;;;;;;;;;;5101714;28;20184;-57
2021/01/29 08:51:45;;;;;;;24.30;17.45;;;;;;;;;;5096702;28;20220;-56
2021/01/29 08:54:17;;;;;;;23.67;18.60;;;;;;;;;;5097267;28;20679;-56
2021/01/29 08:56:51;;;;;;;27.27;18.83;;;;;;;;;;5099175;28;20181;-57
2021/01/29 08:59:19;;;;;;;24.08;18.75;;;;;;;;;;5098708;28;20185;-57
2021/01/29 09:01:49;;;;;;;23.27;17.73;;;;;;;;;;5098055;28;20232;-58
2021/01/29 09:04:21;;;;;;;21.50;17.48;;;;;;;;;;5097430;28;20261;-58
2021/01/29 09:06:49;;;;;;;25.63;17.85;;;;;;;;;;5097179;28;20596;-57
2021/01/29 09:09:18;;;;;;;21.67;15.82;;;;;;;;;;5098653;28;20571;-57
2021/01/29 09:11:48;;;;;;;23.67;17.52;;;;;;;;;;5097628;28;20227;-56
2021/01/29 09:14:18;;;;;;;22.25;16.70;;;;;;;;;;5097421;28;20204;-57
2021/01/29 09:16:45;;;;;;;21.40;16.83;;;;;;;;;;5096806;28;20258;-58
2021/01/29 09:19:13;;;;;;;20.55;16.10;;;;;;;;;;5097667;28;20240;-57
2021/01/29 09:21:48;;;;;;;24.40;17.20;;;;;;;;;;5097792;28;20637;-56
2021/01/29 09:24:19;;;;;;;22.90;16.35;;;;;;;;;;5098263;28;20184;-57
2021/01/29 09:26:54;;;;;;;18.98;15.77;;;;;;;;;;5098639;28;20567;-56
2021/01/29 09:29:23;;;;;;;20.48;14.98;;;;;;;;;;5097486;28;20180;-57
2021/01/29 09:31:55;;;;;;;21.05;15.05;;;;;;;;;;5098394;28;20223;-58
2021/01/29 09:34:23;;;;;;;22.95;15.82;;;;;;;;;;5098500;28;20199;-58
2021/01/29 09:36:53;;;;;;;26.50;16.92;;;;;;;;;;5098230;28;20200;-58
2021/01/29 09:39:26;;;;;;;18.65;15.23;;;;;;;;;;5099221;28;20204;-58
2021/01/29 09:41:56;;;;;;;20.60;16.13;;;;;;;;;;5099553;28;20645;-58
2021/01/29 09:44:24;;;;;;;23.88;17.63;;;;;;;;;;5100156;28;20544;-58
2021/01/29 09:46:53;;;;;;;23.70;16.25;;;;;;;;;;5099364;28;20220;-57
2021/01/29 09:49:21;;;;;;;19.83;15.25;;;;;;;;;;5101231;28;20254;-57
2021/01/29 09:52:02;;;;;;;22.50;16.15;;;;;;;;;;5101025;28;20235;-58
2021/01/29 09:54:30;;;;;;;23.42;16.52;;;;;;;;;;5101544;28;20272;-57
2021/01/29 09:56:59;;;;;;;22.70;16.42;;;;;;;;;;5099555;28;20253;-57
2021/01/29 09:59:34;;;;;;;21.70;16.92;;;;;;;;;;5098116;28;20200;-58
2021/01/29 10:02:08;;;;;;;20.65;16.55;;;;;;;;;;5098414;28;20707;-58
2021/01/29 10:04:55;;;;;;;23.40;16.63;;;;;;;;;;5098575;28;20266;-58
2021/01/29 10:07:24;;;;;;;23.65;17.30;;;;;;;;;;5097683;28;20602;-58
2021/01/29 10:09:57;;;;;;;23.98;17.63;;;;;;;;;;5098307;28;20200;-57
2021/01/29 10:12:26;;;;;;;24.67;16.65;;;;;;;;;;5097210;28;20289;-57
2021/01/29 10:14:54;;;;;;;22.38;15.85;;;;;;;;;;5097115;28;20350;-57
2021/01/29 10:17:24;;;;;;;24.83;16.35;;;;;;;;;;5096568;28;20199;-58
2021/01/29 10:19:53;;;;;;;22.10;16.92;;;;;;;;;;5098147;28;20554;-56
2021/01/29 10:22:39;;;;;;;26.08;16.90;;;;;;;;;;5097632;28;20231;-57
2021/01/29 10:25:11;;;;;;;31.23;17.90;;;;;;;;;;5095782;28;20207;-57
2021/01/29 10:27:42;;;;;;;22.40;15.85;;;;;;;;;;5097730;28;20204;-56
2021/01/29 10:30:13;;;;;;;21.67;16.48;;;;;;;;;;5097808;28;20242;-57
2021/01/29 10:32:42;;;;;;;22.80;16.00;;;;;;;;;;5096028;28;20215;-55
2021/01/29 10:35:15;;;;;;;25.00;17.05;;;;;;;;;;5095733;28;20204;-56
2021/01/29 10:37:45;;;;;;;21.00;16.05;;;;;;;;;;5098444;28;20607;-57
2021/01/29 10:40:17;;;;;;;22.45;15.32;;;;;;;;;;5098899;28;20599;-56
2021/01/29 10:42:47;;;;;;;25.73;17.02;;;;;;;;;;5101115;28;20253;-56
2021/01/29 10:45:16;;;;;;;21.05;16.30;;;;;;;;;;5097546;28;20204;-57
2021/01/29 10:47:48;;;;;;;21.20;14.68;;;;;;;;;;5097176;28;20212;-57
2021/01/29 10:50:18;;;;;;;19.15;15.07;;;;;;;;;;5097121;28;20185;-56
2021/01/29 10:52:59;;;;;;;21.08;15.00;;;;;;;;;;5099041;28;20200;-56
2021/01/29 10:55:27;;;;;;;20.48;15.00;;;;;;;;;;5100498;28;20195;-58
2021/01/29 10:58:08;;;;;;;21.75;16.63;;;;;;;;;;5099079;28;20250;-56
2021/01/29 11:00:36;;;;;;;17.13;13.48;;;;;;;;;;5084976;28;20200;-55
2021/01/29 11:03:06;;;;;;;19.58;15.48;;;;;;;;;;5099979;28;20847;-58
2021/01/29 11:05:35;;;;;;;22.13;17.27;;;;;;;;;;5095658;28;20432;-57
2021/01/29 11:08:05;;;;;;;22.77;16.65;;;;;;;;;;5096224;28;20462;-57
2021/01/29 11:10:33;;;;;;;19.58;14.45;;;;;;;;;;5097177;28;20188;-57
2021/01/29 11:13:02;;;;;;;21.95;16.60;;;;;;;;;;5095891;28;20204;-57
2021/01/29 11:15:35;;;;;;;20.48;15.90;;;;;;;;;;5096437;28;20630;-57
2021/01/29 11:18:06;;;;;;;17.15;13.32;;;;;;;;;;5096023;28;20185;-56
2021/01/29 11:20:34;;;;;;;17.85;14.75;;;;;;;;;;5095968;28;20193;-57
2021/01/29 11:23:03;;;;;;;20.40;15.20;;;;;;;;;;5097040;28;20215;-57
2021/01/29 11:25:45;;;;;;;17.00;14.38;;;;;;;;;;5097792;28;20212;-56
2021/01/29 11:28:21;;;;;;;18.40;14.52;;;;;;;;;;5099020;28;20209;-57
2021/01/29 11:30:53;;;;;;;20.80;14.60;;;;;;;;;;5096949;28;20315;-57
2021/01/29 11:33:23;;;;;;;19.90;14.43;;;;;;;;;;5095399;28;20189;-57
2021/01/29 11:35:56;;;;;;;19.20;14.82;;;;;;;;;;5093725;28;20207;-56
2021/01/29 11:38:35;;;;;;;17.00;14.70;;;;;;;;;;5094617;28;20196;-57
2021/01/29 11:41:12;;;;;;;17.83;14.60;;;;;;;;;;5094090;28;20273;-57
2021/01/29 11:43:40;;;;;;;17.50;14.85;;;;;;;;;;5094805;28;20552;-56
2021/01/29 11:46:14;;;;;;;20.17;16.00;;;;;;;;;;5093693;28;20253;-57
2021/01/29 11:48:44;;;;;;;18.88;14.40;;;;;;;;;;5093554;28;20218;-57
2021/01/29 11:51:13;;;;;;;35.00;27.45;;;;;;;;;;5093681;28;20220;-57
2021/01/29 11:53:43;;;;;;;29.02;21.75;;;;;;;;;;5093668;28;20208;-56
2021/01/29 11:56:19;;;;;;;30.88;21.60;;;;;;;;;;5093598;28;20200;-57
2021/01/29 11:58:49;;;;;;;19.92;15.15;;;;;;;;;;5093596;28;20572;-56
2021/01/29 12:01:20;;;;;;;19.27;15.15;;;;;;;;;;5093989;28;20227;-55
2021/01/29 12:03:49;;;;;;;17.52;14.15;;;;;;;;;;5093992;28;20263;-56
2021/01/29 12:06:19;;;;;;;17.88;14.95;;;;;;;;;;5094016;28;20219;-57
2021/01/29 12:08:51;;;;;;;19.23;15.15;;;;;;;;;;5095991;28;20200;-57
2021/01/29 12:11:24;;;;;;;18.92;14.88;;;;;;;;;;5097212;28;20220;-55
2021/01/29 12:13:55;;;;;;;17.05;13.70;;;;;;;;;;5097823;28;20201;-57
2021/01/29 12:16:24;;;;;;;17.55;14.15;;;;;;;;;;5097116;28;20181;-56
2021/01/29 12:18:52;;;;;;;18.48;14.85;;;;;;;;;;5096223;28;20200;-57
2021/01/29 12:21:28;;;;;;;17.50;14.48;;;;;;;;;;5093821;28;20274;-57
2021/01/29 12:24:02;;;;;;;16.17;14.38;;;;;;;;;;5094284;28;20312;-56
2021/01/29 12:26:34;;;;;;;18.88;15.70;;;;;;;;;;5093159;28;20208;-55
2021/01/29 12:29:04;;;;;;;17.50;13.98;;;;;;;;;;5099185;28;20189;-57
2021/01/29 12:31:39;;;;;;;16.77;14.45;;;;;;;;;;5101124;28;20216;-57
2021/01/29 12:34:07;;;;;;;16.35;14.65;;;;;;;;;;5102335;28;20207;-56
2021/01/29 12:36:36;;;;;;;16.25;13.10;;;;;;;;;;5100936;28;20203;-56
2021/01/29 12:39:07;;;;;;;15.13;13.52;;;;;;;;;;5101189;28;20253;-56
2021/01/29 12:41:40;;;;;;;14.95;12.75;;;;;;;;;;5096853;28;20224;-57
2021/01/29 12:44:22;;;;;;;15.75;13.85;;;;;;;;;;5096876;28;20321;-55
2021/01/29 12:46:54;;;;;;;14.93;12.25;;;;;;;;;;5094417;28;20289;-56
2021/01/29 12:49:24;;;;;;;15.10;13.50;;;;;;;;;;5096604;28;20196;-55
2021/01/29 12:51:52;;;;;;;14.20;11.90;;;;;;;;;;5096580;28;20303;-55
2021/01/29 12:54:23;;;;;;;17.70;12.73;;;;;;;;;;5096860;28;20208;-56
2021/01/29 12:56:55;;;;;;;14.65;11.90;;;;;;;;;;5097247;28;20287;-56
2021/01/29 12:59:42;;;;;;;16.13;13.20;;;;;;;;;;5098437;28;20227;-56
2021/01/29 13:02:15;;;;;;;13.82;11.27;;;;;;;;;;5097176;28;20704;-55
2021/01/29 13:04:45;;;;;;;15.65;11.43;;;;;;;;;;5096647;28;20189;-55
2021/01/29 13:07:15;;;;;;;15.73;11.65;;;;;;;;;;5095978;28;20220;-55
2021/01/29 13:09:51;;;;;;;13.63;11.90;;;;;;;;;;5096462;28;20203;-57
2021/01/29 13:12:26;;;;;;;14.90;11.95;;;;;;;;;;5096020;28;20220;-57
2021/01/29 13:15:00;;;;;;;14.20;11.20;;;;;;;;;;5096321;28;20188;-57
2021/01/29 13:17:29;;;;;;;12.15;10.85;;;;;;;;;;5096348;28;20180;-57
2021/01/29 13:20:01;;;;;;;12.30;10.65;;;;;;;;;;5096195;28;20203;-56
2021/01/29 13:22:42;;;;;;;12.18;10.32;;;;;;;;;;5098732;28;20224;-55
2021/01/29 13:25:17;;;;;;;12.93;10.50;;;;;;;;;;5096402;28;20556;-57
2021/01/29 13:27:49;;;;;;;12.45;10.50;;;;;;;;;;5098063;28;20203;-56
2021/01/29 13:30:18;;;;;;;14.00;10.70;;;;;;;;;;5097546;28;20633;-58
2021/01/29 13:32:45;;;;;;;11.80;9.52;;;;;;;;;;5098333;28;20204;-56
2021/01/29 13:35:13;;;;;;;11.77;9.07;;;;;;;;;;5096800;28;20200;-57
2021/01/29 13:37:40;;;;;;;15.95;9.80;;;;;;;;;;5096753;28;20196;-55
2021/01/29 13:40:09;;;;;;;14.63;9.48;;;;;;;;;;5095817;28;20196;-56
2021/01/29 13:42:38;;;;;;;13.05;9.80;;;;;;;;;;5095744;28;20269;-57
2021/01/29 13:45:11;;;;;;;10.40;8.70;;;;;;;;;;5096281;28;20201;-56
2021/01/29 13:47:39;;;;;;;11.45;9.15;;;;;;;;;;5095606;28;20703;-57
2021/01/29 13:50:18;;;;;;;11.57;7.95;;;;;;;;;;5096428;28;20200;-55
2021/01/29 13:52:50;;;;;;;11.25;8.18;;;;;;;;;;5096026;28;20672;-57
2021/01/29 13:55:27;;;;;;;10.70;8.60;;;;;;;;;;5096350;28;20205;-57
2021/01/29 13:57:55;;;;;;;11.98;8.57;;;;;;;;;;5096481;28;20180;-57
2021/01/29 14:00:25;;;;;;;10.43;8.35;;;;;;;;;;5097032;28;20211;-57
2021/01/29 14:02:55;;;;;;;13.45;8.82;;;;;;;;;;5096630;28;20200;-58
2021/01/29 14:05:23;;;;;;;10.95;8.48;;;;;;;;;;5097047;28;20192;-57
2021/01/29 14:07:51;;;;;;;9.52;8.35;;;;;;;;;;5096383;28;20672;-57
2021/01/29 14:10:22;;;;;;;14.38;9.35;;;;;;;;;;5096729;28;20200;-58
2021/01/29 14:12:59;;;;;;;10.20;8.52;;;;;;;;;;5096269;28;20678;-57
2021/01/29 14:15:29;;;;;;;13.73;11.32;;;;;;;;;;5096290;28;20185;-57
2021/01/29 14:18:03;;;;;;;12.20;10.77;;;;;;;;;;5096358;28;20177;-56
2021/01/29 14:20:36;;;;;;;17.95;12.07;;;;;;;;;;5095522;28;20196;-58
2021/01/29 14:23:09;;;;;;;25.45;15.02;;;;;;;;;;5095650;28;20189;-57
2021/01/29 14:25:44;;;;;;;15.13;12.48;;;;;;;;;;5094762;28;20185;-57
2021/01/29 14:28:38;;;;;;;16.00;13.30;;;;;;;;;;5094648;28;20204;-57
2021/01/29 14:31:10;;;;;;;19.00;13.60;;;;;;;;;;5058827;28;20224;-55
2021/01/29 14:33:53;;;;;;;15.90;13.30;;;;;;;;;;5094962;28;20184;-58
2021/01/29 14:36:26;;;;;;;22.88;15.02;;;;;;;;;;5094541;28;20234;-57
2021/01/29 14:39:03;;;;;;;18.60;15.05;;;;;;;;;;5095146;28;20651;-58
2021/01/29 14:41:35;;;;;;;21.80;14.73;;;;;;;;;;5094967;28;20220;-56
2021/01/29 14:44:07;;;;;;;19.15;15.55;;;;;;;;;;5095085;28;20180;-58
2021/01/29 14:46:40;;;;;;;21.50;16.30;;;;;;;;;;5094600;28;20209;-58
2021/01/29 14:49:14;;;;;;;19.65;15.48;;;;;;;;;;5097088;28;20196;-58
2021/01/29 14:51:43;;;;;;;20.60;15.60;;;;;;;;;;5093331;28;20224;-58
2021/01/29 14:54:12;;;;;;;20.40;16.50;;;;;;;;;;5094430;28;20618;-57
2021/01/29 14:56:43;;;;;;;19.00;15.32;;;;;;;;;;5094916;28;20207;-58
2021/01/29 14:59:12;;;;;;;20.08;16.98;;;;;;;;;;5096579;28;20637;-57